Terminal Aerodrome Forecast
Issued by NWS Duluth, MN

Home | Current Version | Previous Version | Text Only | Print | Product List | Glossary On
Versions: 1 2 3 4 5 6 7 8 9 10 11 12 13 14 15 16 17 18 19 20 21 22 23 24 25 26
000
FTUS43 KDLH 240900 AAD
TAFINL
TAF AMD
KINL 240900Z 2409/2506 12010KT P6SM -RA SCT010 BKN025 OVC035
      TEMPO 2409/2413 BKN010
     FM241300 11011KT 4SM -RA BR OVC015
     FM242000 10009KT 3SM -RA BR OVC007
     FM242200 10007KT 2SM -RASN BR OVC007
     FM250300 05005KT 3SM -SNRA BR OVC006=

USA.gov is the U.S. government's official web portal to all federal, state and local government web resources and services.